Latest Weather Observations for Gympie

IDQ60901

Issued at 4:41 pm EST Tuesday 26 May 2020 (issued every 10 minutes, with the page automatically refreshed every 10 minutes)

About weather observations | Map of Brisbane area stations | Latest observations for Brisbane area | Other Formats
Station Details ID: 040093 Name: GYMPIE Lat: -26.18 Lon: 152.64 Height: 64.5 m
Data from the previous 72 hours. | See also: Recent months at Gympie
Date/Time
EST
Temp
°C
App
Temp
°C
Dew
Point
°C
Rel
Hum
%
Delta-T
°C
Wind Press
QNH
hPa
Press
MSL
hPa
Rain since
9am
mm
Dir  Spd
km/h
Gust
km/h
Spd
kts
Gust
kts
26/04:30pm 22.4 19.5 4.9 32 8.7 NW 9 13 5 7 1016.9 1016.8 0.0
26/04:00pm 23.0 20.6 5.4 32 8.8 NW 7 11 4 6 1016.7 1016.6 0.0
26/03:30pm 23.1 20.0 5.5 32 8.9 NW 11 17 6 9 1016.6 1016.5 0.0
26/03:00pm 22.7 19.8 4.7 31 8.9 N 9 17 5 9 1016.5 1016.4 0.0
26/02:30pm 22.6 20.0 3.2 28 9.3 N 6 15 3 8 1016.5 1016.4 0.0
26/02:00pm 23.4 20.5 4.4 29 9.4 NNE 9 19 5 10 1016.5 1016.4 0.0
26/01:30pm 22.4 19.7 2.5 27 9.4 WSW 6 13 3 7 1016.6 1016.5 0.0
26/01:00pm 23.2 20.7 3.7 28 9.5 WSW 6 13 3 7 1017.0 1016.9 0.0
26/12:30pm 23.1 20.9 3.1 27 9.6 WNW 4 13 2 7 1017.6 1017.5 0.0
26/12:00pm 21.8 19.1 3.5 30 8.8 NNW 7 13 4 7 1018.0 1017.9 0.0
26/11:30am 22.1 20.3 5.5 34 8.3 ENE 4 6 2 3 1018.3 1018.2 0.0
26/11:00am 21.0 19.0 4.6 34 8.0 SW 4 7 2 4 1018.7 1018.6 0.0
26/10:30am 20.6 18.3 4.6 35 7.8 SSW 6 11 3 6 1019.1 1019.0 0.0
26/10:00am 19.4 18.7 8.4 49 5.7 NW 2 6 1 3 1019.3 1019.2 0.0
26/09:30am 18.1 17.6 9.5 57 4.5 W 2 4 1 2 1019.6 1019.5 0.0
26/09:00am 15.0 15.4 11.2 78 2.0 CALM 0 0 0 0 1019.7 1019.6 0.0
26/08:30am 11.6 11.8 10.7 94 0.5 CALM 0 0 0 0 1019.7 1019.6 0.0
26/08:00am 9.8 9.7 9.5 98 0.1 CALM 0 0 0 0 1019.6 1019.5 0.0
26/07:30am 7.3 6.7 7.3 100 0.0 CALM 0 0 0 0 1019.4 1019.3 0.0
26/07:00am 5.7 4.7 5.6 99 0.0 CALM 0 0 0 0 1019.1 1019.0 0.0
26/06:30am 5.9 4.9 5.8 99 0.0 CALM 0 0 0 0 1018.8 1018.7 0.0
26/06:00am 5.9 4.9 5.5 97 0.2 CALM 0 0 0 0 1018.3 1018.2 0.0
26/05:30am 6.3 5.4 5.9 97 0.2 CALM 0 0 0 0 1017.9 1017.8 0.0
26/05:00am 6.8 6.0 6.5 98 0.1 CALM 0 0 0 0 1017.5 1017.4 0.0
26/04:30am 7.2 6.5 6.9 98 0.1 CALM 0 0 0 0 1017.5 1017.4 0.0
26/04:00am 7.3 6.6 6.9 97 0.2 CALM 0 0 0 0 1017.4 1017.3 0.0
26/03:30am 7.4 6.7 6.8 96 0.3 CALM 0 0 0 0 1017.4 1017.3 0.0
26/03:00am 7.7 7.1 7.3 97 0.2 CALM 0 4 0 2 1017.4 1017.3 0.0
26/02:30am 8.5 8.1 8.1 97 0.2 CALM 0 0 0 0 1017.4 1017.3 0.0
26/02:00am 8.6 8.2 8.2 97 0.2 CALM 0 0 0 0 1017.6 1017.5 0.0
26/01:30am 9.1 8.8 8.5 96 0.3 CALM 0 0 0 0 1017.6 1017.5 0.0
26/01:00am 9.6 9.3 8.8 95 0.4 CALM 0 0 0 0 1017.7 1017.6 0.0
26/12:30am 10.6 10.7 10.1 97 0.3 CALM 0 0 0 0 1017.6 1017.5 0.0
26/12:00am 10.8 10.9 10.3 97 0.3 CALM 0 0 0 0 1017.8 1017.7 0.0
 
Date/Time
EST
Temp
°C
App
Temp
°C
Dew
Point
°C
Rel
Hum
%
Delta-T
°C
Wind Press
QNH
hPa
Press
MSL
hPa
Rain since
9am
mm
Dir  Spd
km/h
Gust
km/h
Spd
kts
Gust
kts
25/11:30pm 11.0 11.2 10.4 96 0.3 CALM 0 0 0 0 1017.7 1017.6 0.0
25/11:00pm 11.9 12.3 11.3 96 0.3 CALM 0 0 0 0 1017.9 1017.8 0.0
25/10:30pm 12.1 12.5 11.2 94 0.5 CALM 0 0 0 0 1017.7 1017.6 0.0
25/10:00pm 12.9 12.8 12.1 95 0.4 NNW 4 4 2 2 1017.5 1017.4 0.0
25/09:30pm 12.8 13.4 11.9 94 0.5 CALM 0 0 0 0 1017.3 1017.2 0.0
25/09:00pm 13.3 13.7 11.4 88 1.0 CALM 0 0 0 0 1017.3 1017.2 0.0
25/08:30pm 14.1 14.9 12.5 90 0.9 CALM 0 4 0 2 1017.1 1017.0 0.0
25/08:00pm 14.4 14.9 11.7 84 1.5 CALM 0 0 0 0 1016.9 1016.8 0.0
25/07:30pm 15.4 16.1 12.3 82 1.7 CALM 0 0 0 0 1016.8 1016.7 0.0
25/07:00pm 16.3 17.0 12.3 77 2.2 CALM 0 0 0 0 1016.3 1016.2 0.0
25/06:30pm 17.6 18.4 12.5 72 2.8 CALM 0 0 0 0 1015.8 1015.7 0.0
25/06:00pm 18.1 18.5 12.5 70 3.1 NE 2 4 1 2 1015.4 1015.3 0.0
25/05:30pm 18.7 18.2 12.2 66 3.6 NE 6 9 3 5 1014.8 1014.7 0.0
25/05:00pm 19.8 19.0 11.8 60 4.4 NNE 7 15 4 8 1014.6 1014.5 0.0
25/04:30pm 22.6 21.8 9.7 44 7.0 N 4 7 2 4 1014.2 1014.1 0.0
25/04:00pm 22.9 21.4 9.0 41 7.5 N 7 13 4 7 1013.9 1013.8 0.0
25/03:30pm 23.2 21.7 9.2 41 7.6 N 7 13 4 7 1013.8 1013.7 0.0
25/03:00pm 23.6 22.1 9.2 40 7.8 NNE 7 13 4 7 1013.7 1013.6 0.0
25/02:30pm 23.4 21.9 9.0 40 7.8 NNE 7 17 4 9 1013.9 1013.8 0.0
25/02:00pm 23.4 22.4 9.0 40 7.8 NNE 4 7 2 4 1013.8 1013.7 0.0
25/01:30pm 23.9 23.1 9.5 40 7.8 ENE 4 9 2 5 1013.7 1013.6 0.0
25/01:00pm 22.5 21.2 9.3 43 7.1 NE 6 9 3 5 1014.1 1014.0 0.0
25/12:30pm 23.0 22.2 9.8 43 7.2 E 4 11 2 6 1014.2 1014.1 0.0
25/12:00pm 21.8 20.4 9.0 44 6.8 SE 6 13 3 7 1014.7 1014.6 0.0
25/11:30am 21.6 20.8 9.5 46 6.5 SSE 4 9 2 5 1015.2 1015.1 0.0
25/11:00am 20.6 19.8 9.8 50 5.8 NE 4 7 2 4 1015.4 1015.3 0.0
25/10:30am 19.4 19.0 9.6 53 5.2 SSE 2 6 1 3 1015.9 1015.8 0.0
25/10:00am 18.4 18.0 9.7 57 4.6 SE 2 6 1 3 1016.2 1016.1 0.0
25/09:30am 17.3 17.3 9.7 61 4.0 CALM 0 4 0 2 1016.3 1016.2 0.0
25/09:00am 14.6 14.5 9.6 72 2.6 CALM 0 0 0 0 1016.2 1016.1 0.0
25/08:30am 12.2 12.1 9.6 84 1.3 CALM 0 0 0 0 1016.3 1016.2 0.0
25/08:00am 9.6 9.3 8.7 94 0.4 CALM 0 0 0 0 1016.0 1015.9 0.0
25/07:30am 7.1 6.4 6.8 98 0.1 CALM 0 0 0 0 1015.8 1015.7 0.0
25/07:00am 6.0 5.1 5.9 99 0.0 CALM 0 0 0 0 1015.4 1015.3 0.0
25/06:30am 6.0 5.0 5.7 98 0.1 CALM 0 0 0 0 1014.7 1014.6 0.0
25/06:00am 5.5 4.4 5.1 97 0.2 CALM 0 0 0 0 1014.4 1014.3 0.0
25/05:30am 5.9 4.9 5.5 97 0.2 CALM 0 0 0 0 1014.1 1014.0 0.0
25/05:00am 6.0 4.2 5.6 97 0.2 NNE 4 4 2 2 1013.9 1013.8 0.0
25/04:30am 6.1 5.1 5.5 96 0.3 CALM 0 0 0 0 1014.0 1013.9 0.0
25/04:00am 6.3 5.3 5.7 96 0.3 CALM 0 0 0 0 1013.9 1013.8 0.0
25/03:30am 6.7 5.7 5.8 94 0.4 CALM 0 0 0 0 1013.7 1013.6 0.0
25/03:00am 6.8 5.9 5.9 94 0.4 CALM 0 0 0 0 1013.6 1013.5 0.0
25/02:30am 7.6 6.4 6.5 93 0.5 N 2 6 1 3 1013.5 1013.4 0.0
25/02:00am 7.3 5.6 6.1 92 0.5 NNE 4 7 2 4 1013.8 1013.7 0.0
25/01:30am 8.1 7.3 6.7 91 0.6 CALM 0 4 0 2 1013.7 1013.6 0.0
25/01:00am 8.6 7.8 6.4 86 1.0 CALM 0 2 0 1 1013.9 1013.8 0.0
25/12:30am 9.4 8.1 7.5 88 0.9 N 4 6 2 3 1013.9 1013.8 0.0
25/12:00am 10.0 8.1 6.7 80 1.6 SW 6 15 3 8 1013.6 1013.5 0.0
 
Date/Time
EST
Temp
°C
App
Temp
°C
Dew
Point
°C
Rel
Hum
%
Delta-T
°C
Wind Press
QNH
hPa
Press
MSL
hPa
Rain since
9am
mm
Dir  Spd
km/h
Gust
km/h
Spd
kts
Gust
kts
24/11:30pm 10.3 8.4 6.8 79 1.7 SSW 6 15 3 8 1013.7 1013.6 0.0
24/11:00pm 9.7 8.6 7.0 83 1.3 WNW 2 6 1 3 1013.8 1013.7 0.0
24/10:30pm 10.0 9.2 6.7 80 1.6 CALM 0 4 0 2 1013.7 1013.6 0.0
24/10:00pm 10.2 9.1 6.9 80 1.6 SW 2 7 1 4 1013.7 1013.6 0.0
24/09:30pm 11.5 10.8 6.8 73 2.2 CALM 0 0 0 0 1013.7 1013.6 0.0
24/09:00pm 12.8 11.0 7.3 69 2.7 WSW 6 15 3 8 1013.6 1013.5 0.0
24/08:30pm 10.4 8.5 6.9 79 1.7 SW 6 7 3 4 1013.5 1013.4 0.0
24/08:00pm 12.6 11.9 6.9 68 2.7 CALM 0 0 0 0 1013.2 1013.0 0.0
24/07:30pm 13.0 11.2 7.0 67 2.9 WNW 6 7 3 4 1013.1 1012.9 0.0
24/07:00pm 14.1 12.7 7.2 63 3.4 WNW 4 7 2 4 1012.9 1012.7 0.0
24/06:30pm 14.7 12.8 6.8 59 3.9 W 6 7 3 4 1012.7 1012.5 0.0
24/06:00pm 14.8 12.9 6.9 59 3.9 WSW 6 9 3 5 1012.5 1012.3 0.0
24/05:30pm 15.1 13.2 6.7 57 4.1 SW 6 13 3 7 1012.1 1011.9 0.0
24/05:00pm 15.9 13.8 6.6 54 4.6 SW 7 13 4 7 1011.8 1011.6 0.0
24/04:30pm 17.4 14.6 6.9 50 5.2 SW 11 19 6 10 1011.2 1011.0 0.0
24/04:00pm 18.6 15.8 7.1 47 5.8 SW 11 17 6 9 1010.5 1010.3 0.0
24/03:30pm 18.8 15.2 6.6 45 6.1 SW 15 24 8 13 1010.4 1010.2 0.0
24/03:00pm 19.4 16.2 6.8 44 6.4 WSW 13 26 7 14 1010.2 1010.0 0.0
24/02:30pm 20.0 17.2 7.1 43 6.6 WSW 11 26 6 14 1010.1 1009.9 0.0
24/02:00pm 19.7 16.6 7.1 44 6.4 WSW 13 26 7 14 1010.2 1010.0 0.0
24/01:30pm 19.3 15.9 6.1 42 6.6 WSW 13 30 7 16 1010.2 1010.0 0.0
24/01:00pm 19.5 15.9 6.6 43 6.5 WSW 15 32 8 17 1010.5 1010.3 0.0
24/12:30pm 19.4 15.4 6.8 44 6.4 WNW 17 30 9 16 1010.9 1010.7 0.0
24/12:00pm 18.4 14.7 6.3 45 6.0 WNW 15 26 8 14 1011.2 1011.0 0.0
24/11:30am 17.8 15.2 6.0 46 5.8 WNW 9 19 5 10 1011.6 1011.4 0.0
24/11:00am 17.5 15.3 6.4 48 5.5 WSW 7 13 4 7 1012.1 1011.9 0.0
24/10:30am 16.4 12.6 5.7 49 5.2 W 15 24 8 13 1012.3 1012.1 0.0
24/10:00am 16.1 13.5 6.0 51 4.9 W 9 20 5 11 1012.6 1012.4 0.0
24/09:30am 15.2 12.6 6.0 54 4.4 WSW 9 20 5 11 1012.6 1012.4 0.0
24/09:00am 14.1 12.3 5.2 55 4.2 W 4 9 2 5 1012.8 1012.6 -
24/08:30am 13.3 12.0 5.9 61 3.5 SW 2 4 1 2 1012.6 1012.4 -
24/08:00am 11.8 10.4 5.7 66 2.8 W 2 6 1 3 1012.5 1012.3 -
24/07:30am 10.0 8.5 4.8 70 2.3 NW 2 4 1 2 1012.4 1012.2 -
24/07:00am 7.5 5.6 4.8 83 1.2 WSW 4 6 2 3 1011.8 1011.6 -
24/06:30am 6.6 4.6 4.4 86 1.0 WSW 4 6 2 3 1011.9 1011.7 -
24/06:00am 8.1 6.6 4.9 80 1.4 NNW 2 4 1 2 1011.7 1011.5 -
24/05:30am 6.2 4.7 4.8 91 0.6 SSW 2 4 1 2 1011.1 1010.9 -
24/05:00am 5.2 3.2 4.5 95 0.3 NNE 4 6 2 3 1011.1 1010.9 -
24/04:30am 4.8 3.4 3.5 91 0.5 CALM 0 0 0 0 1011.1 1010.9 -
24/04:00am 6.4 4.8 4.6 88 0.8 NNE 2 4 1 2 1011.0 1010.8 -
24/03:30am 5.8 3.5 4.8 93 0.4 NNE 6 7 3 4 1011.3 1011.1 -
24/03:00am 5.2 4.0 4.5 95 0.3 CALM 0 4 0 2 1011.3 1011.1 0.0
24/02:30am 6.2 5.0 4.8 91 0.6 CALM 0 0 0 0 1011.5 1011.3 -
24/02:00am 5.7 3.8 5.0 95 0.3 SW 4 9 2 5 1011.5 1011.3 -
24/01:30am 6.0 4.5 5.0 93 0.4 NNW 2 7 1 4 1011.9 1011.7 -
24/01:00am 6.6 5.2 5.4 92 0.5 WNW 2 6 1 3 1011.5 1011.3 -
24/12:30am 7.2 5.5 6.1 93 0.5 NW 4 6 2 3 1011.6 1011.4 -
24/12:00am 7.7 6.9 6.3 91 0.6 CALM 0 0 0 0 1011.4 1011.2 -
 
Date/Time
EST
Temp
°C
App
Temp
°C
Dew
Point
°C
Rel
Hum
%
Delta-T
°C
Wind Press
QNH
hPa
Press
MSL
hPa
Rain since
9am
mm
Dir  Spd
km/h
Gust
km/h
Spd
kts
Gust
kts
23/11:30pm 7.9 7.0 6.2 89 0.8 CALM 0 0 0 0 1011.6 1011.4 -
23/11:00pm 8.7 7.8 6.0 83 1.2 CALM 0 0 0 0 1011.9 1011.7 -
23/10:30pm 9.6 7.9 6.0 78 1.7 NW 4 6 2 3 1011.8 1011.6 -
23/10:00pm 10.3 8.7 6.5 77 1.8 N 4 4 2 2 1012.6 1012.4 -
23/09:30pm 10.7 8.8 7.4 80 1.6 NW 7 9 4 5 1012.8 1012.6 -
23/09:00pm 9.8 8.0 7.1 83 1.3 SW 6 7 3 4 1011.4 1011.2 -
23/08:30pm 10.6 9.1 6.6 76 1.9 N 4 6 2 3 1012.6 1012.4 -
23/08:00pm 10.4 9.3 6.9 79 1.7 N 2 4 1 2 1012.4 1012.2 -
23/07:30pm 10.8 10.0 6.7 76 1.9 CALM 0 0 0 0 1011.2 1011.0 -
23/07:00pm 11.6 9.8 7.3 75 2.1 NNW 6 7 3 4 1012.1 1011.9 -
23/06:30pm 11.5 10.8 6.8 73 2.2 CALM 0 2 0 1 1011.1 1010.9 -
23/06:00pm 11.5 10.4 6.8 73 2.2 WNW 2 6 1 3 1011.5 1011.3 -
23/05:30pm 12.9 11.1 5.6 61 3.4 NNW 4 7 2 4 1010.8 1010.6 -
23/05:00pm 13.0 11.4 6.4 64 3.2 NW 4 7 2 4 1011.4 1011.2 0.0

Latest Capital City Observations: Canberra | Sydney | Melbourne | Brisbane | Adelaide | Perth | Hobart | Darwin

Other formats

Comma delimited format used in spreadsheet applications
http://www.bom.gov.au/fwo/IDQ60901/IDQ60901.94566.axf

JavaScript Object Notation format (JSON) in row-major order
http://www.bom.gov.au/fwo/IDQ60901/IDQ60901.94566.json

Data quality

Most of these data are generated automatically and are frequently updated. Quality checks on data are not normally performed. It is possible for incorrect values to appear. Refer to information at About Latest Weather Observations and please check the disclaimer before using these data.